Time;durP1;ratioP1;P1;durP2;ratioP2;P2;SDS_P1;SDS_P2;PMS_P1;PMS_P2;Temp;Humidity;BMP_temperature;BMP_pressure;BME280_temperature;BME280_humidity;BME280_pressure;Samples;Min_cycle;Max_cycle;Signal;HPM_P1;HPM_P2
2023/12/06 00:00:25;;;;;;;3.13;1.50;;;;;;;7.06;100.00;99346.69;5071988;28;20248;-69
2023/12/06 00:02:52;;;;;;;3.13;2.10;;;;;;;7.08;100.00;99347.50;5072589;28;20245;-70
2023/12/06 00:05:18;;;;;;;9.70;2.93;;;;;;;7.10;100.00;99352.59;5072835;28;20672;-69
2023/12/06 00:07:45;;;;;;;2.60;2.07;;;;;;;7.10;100.00;99355.97;5072683;28;20212;-70
2023/12/06 00:10:12;;;;;;;3.80;1.40;;;;;;;7.09;100.00;99351.72;5071192;28;20196;-70
2023/12/06 00:12:40;;;;;;;2.40;2.23;;;;;;;7.13;100.00;99349.97;5072715;28;20208;-70
2023/12/06 00:15:08;;;;;;;2.70;2.53;;;;;;;7.10;100.00;99340.69;5072799;28;20304;-68
2023/12/06 00:17:35;;;;;;;3.57;2.83;;;;;;;7.09;100.00;99335.59;5071435;28;20245;-70
2023/12/06 00:20:02;;;;;;;3.30;3.00;;;;;;;7.10;100.00;99333.03;5071564;28;20200;-70
2023/12/06 00:22:29;;;;;;;4.53;1.67;;;;;;;7.10;100.00;99340.69;5071868;28;20208;-70
2023/12/06 00:24:56;;;;;;;2.70;2.60;;;;;;;7.10;100.00;99335.59;5070996;28;20690;-69
2023/12/06 00:27:23;;;;;;;2.50;1.47;;;;;;;7.09;100.00;99333.91;5072017;28;20216;-70
2023/12/06 00:29:51;;;;;;;3.13;2.83;;;;;;;7.10;100.00;99334.75;5070359;28;20307;-70
2023/12/06 00:32:18;;;;;;;10.67;2.23;;;;;;;7.09;100.00;99333.03;5071844;28;20258;-70
2023/12/06 00:34:45;;;;;;;4.53;2.07;;;;;;;7.09;100.00;99339.00;5072734;28;20545;-70
2023/12/06 00:37:11;;;;;;;3.53;2.73;;;;;;;7.10;100.00;99330.50;5070709;28;20196;-70
2023/12/06 00:39:38;;;;;;;3.37;2.30;;;;;;;7.11;100.00;99321.13;5071010;28;20270;-70
2023/12/06 00:42:05;;;;;;;3.60;2.33;;;;;;;7.12;100.00;99328.75;5070399;28;20195;-70
2023/12/06 00:44:32;;;;;;;3.03;2.70;;;;;;;7.08;100.00;99316.91;5071737;28;20204;-70
2023/12/06 00:47:00;;;;;;;8.60;2.30;;;;;;;7.12;100.00;99316.00;5071942;28;20221;-69
2023/12/06 00:49:26;;;;;;;2.40;2.27;;;;;;;7.11;100.00;99318.59;5071357;28;20196;-70
2023/12/06 00:51:53;;;;;;;2.83;2.63;;;;;;;7.12;100.00;99316.00;5071666;28;20204;-69
2023/12/06 00:54:20;;;;;;;5.03;2.30;;;;;;;7.12;100.00;99313.44;5071161;28;20208;-69
2023/12/06 00:56:46;;;;;;;2.23;1.87;;;;;;;7.13;100.00;99325.34;5070751;28;20196;-69
2023/12/06 00:59:13;;;;;;;2.27;1.77;;;;;;;7.09;100.00;99313.50;5070797;28;20634;-70
2023/12/06 01:01:40;;;;;;;2.57;2.10;;;;;;;7.07;100.00;99315.25;5070250;28;20224;-70
2023/12/06 01:04:08;;;;;;;6.87;3.53;;;;;;;7.07;100.00;99314.41;5070444;28;20208;-69
2023/12/06 01:06:35;;;;;;;2.87;2.67;;;;;;;7.08;100.00;99310.97;5070176;28;20219;-70
2023/12/06 01:09:03;;;;;;;3.47;3.17;;;;;;;7.05;100.00;99316.13;5071630;28;20204;-70
2023/12/06 01:11:29;;;;;;;6.03;3.17;;;;;;;7.07;100.00;99309.31;5071066;28;20664;-70
2023/12/06 01:13:56;;;;;;;2.57;2.10;;;;;;;7.08;100.00;99306.72;5071493;28;20204;-70
2023/12/06 01:16:23;;;;;;;5.17;2.47;;;;;;;7.06;100.00;99303.38;5071098;28;20721;-70
2023/12/06 01:18:50;;;;;;;3.13;2.37;;;;;;;7.06;100.00;99298.25;5070885;28;20214;-70
2023/12/06 01:21:18;;;;;;;6.00;1.80;;;;;;;7.07;100.00;99294.00;5070922;28;20639;-69
2023/12/06 01:23:45;;;;;;;4.67;2.63;;;;;;;7.07;100.00;99294.84;5073430;28;20201;-70
2023/12/06 01:26:12;;;;;;;3.57;1.80;;;;;;;7.08;100.00;99291.41;5070643;28;20206;-70
2023/12/06 01:28:38;;;;;;;7.67;2.43;;;;;;;7.08;100.00;99288.03;5070764;28;20274;-70
2023/12/06 01:31:05;;;;;;;1.53;1.43;;;;;;;7.09;100.00;99285.47;5070496;28;20212;-70
2023/12/06 01:33:32;;;;;;;2.57;2.37;;;;;;;7.07;100.00;99278.72;5070657;28;20249;-70
2023/12/06 01:35:59;;;;;;;4.80;1.87;;;;;;;7.07;100.00;99277.03;5070560;28;20234;-70
2023/12/06 01:38:27;;;;;;;1.97;1.80;;;;;;;7.10;100.00;99274.41;5071156;28;20660;-70
2023/12/06 01:40:54;;;;;;;3.87;2.50;;;;;;;7.00;100.00;99277.16;5070559;28;20200;-70
2023/12/06 01:43:21;;;;;;;2.30;2.10;;;;;;;6.98;100.00;99269.50;5068150;28;20265;-70
2023/12/06 01:45:48;;;;;;;4.00;2.73;;;;;;;6.97;100.00;99262.75;5068669;28;20579;-70
2023/12/06 01:48:16;;;;;;;3.33;2.63;;;;;;;6.95;100.00;99259.38;5070117;28;20430;-70
2023/12/06 01:50:44;;;;;;;2.90;2.67;;;;;;;6.92;100.00;99256.88;5069792;28;20257;-69
2023/12/06 01:53:11;;;;;;;1.63;1.53;;;;;;;6.94;100.00;99254.31;5068959;28;20204;-70
2023/12/06 01:55:39;;;;;;;1.97;1.87;;;;;;;6.91;100.00;99250.13;5069135;28;20204;-69
2023/12/06 01:58:05;;;;;;;3.27;3.07;;;;;;;6.87;100.00;99235.75;5069195;28;20192;-70
2023/12/06 02:00:33;;;;;;;3.50;3.07;;;;;;;6.93;100.00;99238.19;5070118;28;20203;-68
2023/12/06 02:03:00;;;;;;;7.67;2.03;;;;;;;6.91;100.00;99227.19;5069331;28;20940;-70
2023/12/06 02:05:27;;;;;;;8.13;1.67;;;;;;;6.86;100.00;99211.13;5068151;28;20251;-70
2023/12/06 02:07:53;;;;;;;3.23;3.03;;;;;;;6.94;100.00;99227.13;5069976;28;20644;-70
2023/12/06 02:13:43;;;;;;;1.67;1.57;;;;;;;6.95;100.00;99213.50;5070524;28;20576;-70
2023/12/06 02:16:10;;;;;;;9.23;2.37;;;;;;;6.98;100.00;99217.72;5069522;28;20773;-70
2023/12/06 02:18:37;;;;;;;7.43;2.43;;;;;;;6.99;100.00;99212.59;5069425;28;20282;-69
2023/12/06 02:21:05;;;;;;;5.57;2.47;;;;;;;6.98;100.00;99221.09;5069891;28;20630;-69
2023/12/06 02:23:37;;;;;;;5.70;2.57;;;;;;;6.99;100.00;99220.22;5069630;28;20203;-69
2023/12/06 02:26:05;;;;;;;15.23;2.80;;;;;;;6.98;100.00;99223.63;5069584;28;20203;-70
2023/12/06 02:28:32;;;;;;;2.23;2.13;;;;;;;6.93;100.00;99215.25;5068721;28;20216;-70
2023/12/06 02:30:59;;;;;;;5.07;3.00;;;;;;;6.94;100.00;99216.09;5068171;28;20208;-69
2023/12/06 02:33:26;;;;;;;8.00;2.83;;;;;;;6.59;100.00;99158.16;5070562;28;20203;-70
2023/12/06 02:35:57;;;;;;;2.37;2.27;;;;;;;6.93;100.00;99225.44;5069546;28;20667;-69
2023/12/06 02:38:24;;;;;;;2.70;2.60;;;;;;;6.90;100.00;99224.66;5069911;28;20208;-69
2023/12/06 02:40:53;;;;;;;2.80;2.67;;;;;;;6.84;100.00;99211.19;5069338;28;20201;-70
2023/12/06 02:43:24;;;;;;;2.23;2.03;;;;;;;6.87;100.00;99223.00;5070204;28;20203;-70
2023/12/06 02:45:51;;;;;;;1.47;1.47;;;;;;;6.88;100.00;99217.06;5070269;28;20258;-70
2023/12/06 02:48:18;;;;;;;3.67;2.87;;;;;;;6.88;100.00;99213.66;5069640;28;20650;-70
2023/12/06 02:50:44;;;;;;;5.23;2.13;;;;;;;6.90;100.00;99215.31;5069687;28;20196;-70
2023/12/06 02:53:11;;;;;;;2.87;1.80;;;;;;;6.90;100.00;99207.66;5069178;28;20204;-69
2023/12/06 02:55:38;;;;;;;8.07;2.50;;;;;;;6.89;100.00;99205.97;5070146;28;20200;-69
2023/12/06 02:58:05;;;;;;;2.47;2.27;;;;;;;6.90;100.00;99204.28;5069148;28;20258;-69
2023/12/06 03:00:33;;;;;;;4.53;3.13;;;;;;;6.90;100.00;99209.38;5070487;28;20203;-70
2023/12/06 03:02:59;;;;;;;2.33;1.83;;;;;;;6.91;100.00;99206.81;5072893;28;20252;-69
2023/12/06 03:05:26;;;;;;;6.67;2.30;;;;;;;6.93;100.00;99204.22;5073626;28;20581;-69
2023/12/06 03:07:53;;;;;;;5.53;2.70;;;;;;;6.91;100.00;99204.25;5073129;28;20211;-69
2023/12/06 03:10:19;;;;;;;9.13;2.83;;;;;;;6.83;100.00;99193.34;5073015;28;20207;-70
2023/12/06 03:12:46;;;;;;;4.27;2.23;;;;;;;6.87;100.00;99200.09;5073645;28;20648;-69
2023/12/06 03:15:15;;;;;;;2.87;2.77;;;;;;;6.88;100.00;99199.22;5073254;28;20200;-68
2023/12/06 03:17:43;;;;;;;2.03;1.93;;;;;;;6.88;100.00;99198.38;5072487;28;20200;-70
2023/12/06 03:20:10;;;;;;;5.60;2.80;;;;;;;6.86;100.00;99198.41;5073803;28;20622;-70
2023/12/06 03:22:37;;;;;;;7.27;2.23;;;;;;;6.86;100.00;99193.28;5073346;28;20257;-70
2023/12/06 03:25:07;;;;;;;2.00;1.90;;;;;;;6.87;100.00;99192.44;5073076;28;20215;-70
2023/12/06 03:27:34;;;;;;;4.33;2.07;;;;;;;6.84;100.00;99185.69;5072601;28;20216;-70
2023/12/06 03:30:01;;;;;;;3.70;3.60;;;;;;;6.83;100.00;99185.72;5074092;28;20748;-70
2023/12/06 03:32:28;;;;;;;6.83;3.83;;;;;;;6.82;100.00;99189.13;5073312;28;20207;-69
2023/12/06 03:34:56;;;;;;;6.80;4.00;;;;;;;6.83;100.00;99194.19;5073367;28;20203;-70
2023/12/06 03:37:22;;;;;;;6.03;3.30;;;;;;;6.84;100.00;99190.78;5073063;28;20196;-69
2023/12/06 03:39:49;;;;;;;2.87;2.67;;;;;;;6.88;100.00;99191.56;5069727;28;20270;-69
2023/12/06 03:42:16;;;;;;;11.20;2.87;;;;;;;6.90;100.00;99186.44;5072652;28;20192;-69
2023/12/06 03:44:42;;;;;;;3.93;3.00;;;;;;;6.88;100.00;99185.63;5072613;28;20618;-69
2023/12/06 03:47:09;;;;;;;1.77;1.67;;;;;;;6.88;100.00;99186.47;5072733;28;20249;-69
2023/12/06 03:49:36;;;;;;;4.77;3.37;;;;;;;6.89;100.00;99198.34;5073325;28;20676;-69
2023/12/06 03:52:05;;;;;;;4.67;4.23;;;;;;;6.91;100.00;99181.31;5073043;28;20300;-70
2023/12/06 03:54:32;;;;;;;3.27;2.83;;;;;;;6.90;100.00;99179.63;5072664;28;20204;-69
2023/12/06 03:56:59;;;;;;;6.10;3.13;;;;;;;6.89;100.00;99188.13;5072879;28;20231;-69
2023/12/06 03:59:26;;;;;;;3.73;3.20;;;;;;;6.86;100.00;99183.09;5074465;28;20223;-70
2023/12/06 04:01:53;;;;;;;1.90;1.80;;;;;;;6.91;100.00;99183.88;5072536;28;20236;-70
2023/12/06 04:04:19;;;;;;;4.17;3.87;;;;;;;6.95;100.00;99187.22;5076066;28;20269;-70
2023/12/06 04:06:46;;;;;;;8.73;3.17;;;;;;;6.94;100.00;99186.38;5072386;28;20196;-69
2023/12/06 04:09:14;;;;;;;3.33;3.13;;;;;;;6.94;100.00;99188.91;5072736;28;20760;-69
2023/12/06 04:11:41;;;;;;;2.40;2.13;;;;;;;6.93;100.00;99186.38;5071763;28;20212;-69
2023/12/06 04:14:08;;;;;;;2.50;2.30;;;;;;;6.92;100.00;99188.09;5073502;28;20200;-69
2023/12/06 04:16:37;;;;;;;2.90;2.67;;;;;;;6.89;100.00;99180.50;5072484;28;20203;-69
2023/12/06 04:19:03;;;;;;;11.10;2.13;;;;;;;6.90;100.00;99177.09;5072586;28;20253;-70
2023/12/06 04:21:30;;;;;;;4.47;4.13;;;;;;;6.90;100.00;99174.53;5072092;28;20200;-70
2023/12/06 04:23:57;;;;;;;7.70;2.63;;;;;;;6.82;100.00;99171.28;5070693;28;20250;-69
2023/12/06 04:26:25;;;;;;;1.30;1.30;;;;;;;6.80;100.00;99167.94;5072247;28;20262;-69
2023/12/06 04:28:51;;;;;;;2.80;2.70;;;;;;;6.80;100.00;99167.94;5068800;28;20224;-69
2023/12/06 04:31:18;;;;;;;16.97;3.57;;;;;;;6.80;100.00;99166.22;5073311;28;20200;-69
2023/12/06 04:33:45;;;;;;;8.63;2.30;;;;;;;6.79;100.00;99168.78;5072545;28;20204;-69
2023/12/06 04:36:12;;;;;;;5.43;2.33;;;;;;;6.79;100.00;99161.16;5072313;28;20200;-69
2023/12/06 04:38:39;;;;;;;3.73;3.33;;;;;;;6.77;100.00;99163.75;5072126;28;20207;-70
2023/12/06 04:41:05;;;;;;;6.13;3.37;;;;;;;6.74;100.00;99163.81;5072223;28;20249;-69
2023/12/06 04:43:34;;;;;;;2.10;2.00;;;;;;;6.75;100.00;99154.47;5072173;28;20644;-70
2023/12/06 04:46:00;;;;;;;7.00;2.87;;;;;;;6.77;100.00;99152.72;5071589;28;20207;-69
2023/12/06 04:48:27;;;;;;;13.43;4.03;;;;;;;6.76;100.00;99158.66;5072847;28;20650;-69
2023/12/06 04:50:54;;;;;;;2.10;2.07;;;;;;;6.78;100.00;99157.78;5073429;28;20207;-69
2023/12/06 04:53:20;;;;;;;2.23;2.03;;;;;;;6.78;100.00;99159.50;5071631;28;20196;-70
2023/12/06 04:55:47;;;;;;;7.83;2.27;;;;;;;6.77;100.00;99152.72;5070804;28;20200;-69
2023/12/06 04:58:14;;;;;;;5.90;3.57;;;;;;;6.78;100.00;99149.31;5071247;28;20200;-69
2023/12/06 05:00:43;;;;;;;1.97;1.80;;;;;;;6.77;100.00;99148.47;5070935;28;20204;-70
2023/12/06 05:03:10;;;;;;;3.70;3.60;;;;;;;6.77;100.00;99160.34;5071887;28;20231;-69
2023/12/06 05:05:37;;;;;;;7.53;3.80;;;;;;;6.76;100.00;99151.88;5068694;28;20660;-69
2023/12/06 05:08:04;;;;;;;3.67;3.47;;;;;;;6.76;100.00;99156.13;5071302;28;20220;-69
2023/12/06 05:10:31;;;;;;;3.27;2.60;;;;;;;6.66;100.00;99144.41;5070206;28;20212;-69
2023/12/06 05:12:58;;;;;;;4.63;3.53;;;;;;;6.69;100.00;99147.75;5068086;28;20269;-69
2023/12/06 05:15:24;;;;;;;3.13;3.03;;;;;;;6.71;100.00;99148.56;5068469;28;20286;-69
2023/12/06 05:17:52;;;;;;;2.30;2.20;;;;;;;6.67;100.00;99153.75;5068778;28;20931;-70
2023/12/06 05:20:19;;;;;;;4.03;2.67;;;;;;;6.64;100.00;99153.81;5070868;28;20265;-69
2023/12/06 05:22:46;;;;;;;4.10;2.23;;;;;;;6.62;100.00;99158.09;5070501;28;20257;-69
2023/12/06 05:25:12;;;;;;;4.37;3.43;;;;;;;6.63;100.00;99162.31;5070932;28;20257;-69
2023/12/06 05:27:39;;;;;;;6.97;5.07;;;;;;;6.62;100.00;99158.94;5071086;28;20718;-69
2023/12/06 05:30:07;;;;;;;2.30;2.20;;;;;;;6.62;100.00;99155.56;5068596;28;20195;-70
2023/12/06 05:32:33;;;;;;;3.40;3.10;;;;;;;6.68;100.00;99153.72;5071382;28;20598;-69
2023/12/06 05:35:02;;;;;;;3.00;2.57;;;;;;;6.71;100.00;99157.94;5070692;28;20250;-70
2023/12/06 05:37:28;;;;;;;4.13;3.57;;;;;;;6.71;100.00;99148.56;5069869;28;20192;-69
2023/12/06 05:39:55;;;;;;;3.67;3.17;;;;;;;6.68;100.00;99147.78;5070330;28;20208;-69
2023/12/06 05:42:22;;;;;;;5.30;4.00;;;;;;;6.75;100.00;99154.47;5070667;28;20200;-70
2023/12/06 05:44:49;;;;;;;6.53;2.90;;;;;;;6.69;100.00;99145.19;5070309;28;20200;-69
2023/12/06 05:47:15;;;;;;;12.23;2.77;;;;;;;6.76;100.00;99151.88;5070252;28;20629;-69
2023/12/06 05:49:42;;;;;;;11.87;4.20;;;;;;;6.77;100.00;99162.91;5070825;28;20816;-69
2023/12/06 05:52:10;;;;;;;3.87;2.77;;;;;;;6.76;100.00;99158.66;5070957;28;20650;-70
2023/12/06 05:54:37;;;;;;;3.40;3.20;;;;;;;6.75;100.00;99149.38;5070416;28;20204;-70
2023/12/06 05:57:04;;;;;;;3.03;2.77;;;;;;;6.72;100.00;99146.88;5071979;28;20684;-69
2023/12/06 05:59:31;;;;;;;2.97;2.70;;;;;;;6.82;100.00;99156.84;5073420;28;20634;-69
2023/12/06 06:01:57;;;;;;;13.00;1.90;;;;;;;6.81;100.00;99156.88;5070330;28;20285;-69
2023/12/06 06:04:24;;;;;;;5.93;3.20;;;;;;;6.81;100.00;99156.88;5069759;28;20208;-70
2023/12/06 06:06:53;;;;;;;2.70;2.50;;;;;;;6.80;100.00;99153.50;5070322;28;20196;-70
2023/12/06 06:09:21;;;;;;;2.53;2.17;;;;;;;6.83;100.00;99162.78;5070154;28;20537;-70
2023/12/06 06:11:48;;;;;;;4.40;3.40;;;;;;;6.82;100.00;99159.38;5069752;28;20211;-71
2023/12/06 06:14:15;;;;;;;2.93;2.53;;;;;;;6.88;100.00;99166.91;5070374;28;20228;-71
2023/12/06 06:16:41;;;;;;;4.07;3.33;;;;;;;6.90;100.00;99169.44;5070002;28;20641;-71
2023/12/06 06:19:08;;;;;;;4.03;2.87;;;;;;;6.88;100.00;99166.91;5069800;28;20200;-71
2023/12/06 06:21:35;;;;;;;8.73;4.63;;;;;;;6.91;100.00;99168.59;5067696;28;20204;-71
2023/12/06 06:24:01;;;;;;;2.03;1.93;;;;;;;6.92;100.00;99167.69;5067376;28;20208;-70
2023/12/06 06:26:29;;;;;;;3.27;2.97;;;;;;;6.96;100.00;99160.84;5069440;28;20246;-70
2023/12/06 06:28:56;;;;;;;8.13;3.10;;;;;;;6.96;100.00;99169.31;5068346;28;20220;-70
2023/12/06 06:31:23;;;;;;;5.53;2.60;;;;;;;6.99;100.00;99163.31;5069753;28;20618;-69
2023/12/06 06:33:49;;;;;;;11.63;3.63;;;;;;;7.01;100.00;99162.41;5069030;28;20460;-70
2023/12/06 06:36:16;;;;;;;13.13;5.10;;;;;;;7.02;100.00;99159.00;5067949;28;20195;-70
2023/12/06 06:38:43;;;;;;;6.40;3.07;;;;;;;7.04;100.00;99159.00;5068432;28;20200;-70
2023/12/06 06:41:10;;;;;;;6.80;2.77;;;;;;;7.06;100.00;99160.63;5069065;28;20253;-70
2023/12/06 06:43:38;;;;;;;5.23;3.03;;;;;;;7.09;100.00;99155.47;5068768;28;20253;-68
2023/12/06 06:46:04;;;;;;;5.97;3.63;;;;;;;7.07;100.00;99156.38;5064375;28;20800;-69
2023/12/06 06:48:31;;;;;;;3.43;2.83;;;;;;;7.08;100.00;99153.78;5069216;28;20216;-68
2023/12/06 06:50:58;;;;;;;2.00;1.73;;;;;;;7.08;100.00;99158.88;5068075;28;20202;-68
2023/12/06 06:53:25;;;;;;;3.10;2.60;;;;;;;7.07;100.00;99156.38;5069851;28;20258;-69
2023/12/06 06:55:53;;;;;;;10.33;3.63;;;;;;;6.86;100.00;99114.31;5067689;28;20550;-69
2023/12/06 06:58:19;;;;;;;11.07;4.13;;;;;;;7.13;100.00;99162.19;5069526;28;20753;-69
2023/12/06 07:00:48;;;;;;;4.83;2.43;;;;;;;7.13;100.00;99153.72;5069739;28;20200;-70
2023/12/06 07:03:14;;;;;;;4.70;4.27;;;;;;;7.15;100.00;99157.91;5069149;28;20224;-69
2023/12/06 07:05:41;;;;;;;5.27;1.80;;;;;;;7.17;100.00;99156.16;5069647;28;20208;-70
2023/12/06 07:08:08;;;;;;;12.83;4.63;;;;;;;7.16;100.00;99162.13;5069186;28;20656;-69
2023/12/06 07:10:37;;;;;;;4.40;2.83;;;;;;;7.15;100.00;99155.34;5068943;28;20208;-70
2023/12/06 07:13:04;;;;;;;5.13;3.70;;;;;;;7.19;100.00;99156.97;5068170;28;20214;-68
2023/12/06 07:15:31;;;;;;;4.23;3.30;;;;;;;7.21;100.00;99164.56;5066869;28;20200;-69
2023/12/06 07:17:59;;;;;;;3.47;3.13;;;;;;;7.23;100.00;99168.78;5067780;28;20255;-70
2023/12/06 07:20:25;;;;;;;6.53;2.13;;;;;;;7.23;100.00;99171.34;5067218;28;21340;-70
2023/12/06 07:22:53;;;;;;;4.07;3.70;;;;;;;7.25;100.00;99171.28;5068588;28;20208;-71
2023/12/06 07:25:20;;;;;;;6.53;2.63;;;;;;;7.27;100.00;99164.47;5067589;28;20208;-71
2023/12/06 07:27:47;;;;;;;3.60;3.33;;;;;;;7.12;100.00;99150.31;5067397;28;20196;-70
2023/12/06 07:30:15;;;;;;;6.90;2.13;;;;;;;7.22;100.00;99161.16;5068019;28;20220;-71
2023/12/06 07:32:42;;;;;;;3.50;2.40;;;;;;;7.06;100.00;99130.06;5068795;28;20200;-71
2023/12/06 07:35:10;;;;;;;7.23;3.27;;;;;;;7.24;100.00;99170.44;5068237;28;20273;-71
2023/12/06 07:37:37;;;;;;;9.43;3.03;;;;;;;7.23;100.00;99163.69;5066177;28;20200;-71
2023/12/06 07:40:07;;;;;;;4.97;3.00;;;;;;;7.27;100.00;99169.56;5067829;28;20287;-72
2023/12/06 07:42:34;;;;;;;4.63;4.40;;;;;;;7.29;100.00;99172.91;5069200;28;20200;-71
2023/12/06 07:45:00;;;;;;;8.90;4.43;;;;;;;7.30;100.00;99164.41;5070067;28;20196;-71
2023/12/06 07:47:28;;;;;;;5.13;3.07;;;;;;;7.30;100.00;99165.22;5070162;28;20208;-70
2023/12/06 07:49:55;;;;;;;11.43;5.23;;;;;;;7.36;100.00;99170.22;5072548;28;20298;-70
2023/12/06 07:52:23;;;;;;;2.80;2.70;;;;;;;7.36;100.00;99179.56;5072215;28;20687;-70
2023/12/06 07:54:50;;;;;;;10.57;3.50;;;;;;;7.32;100.00;99163.50;5071936;28;20208;-71
2023/12/06 07:57:17;;;;;;;3.93;3.20;;;;;;;7.42;100.00;99179.44;5071960;28;20203;-71
2023/12/06 07:59:47;;;;;;;4.40;3.53;;;;;;;7.44;100.00;99181.94;5071779;28;20196;-70
2023/12/06 08:02:14;;;;;;;4.47;3.37;;;;;;;7.45;100.00;99175.97;5071397;28;20224;-69
2023/12/06 08:04:40;;;;;;;4.43;2.77;;;;;;;7.46;100.00;99181.06;5071807;28;20656;-71
2023/12/06 08:07:07;;;;;;;3.23;3.03;;;;;;;7.49;100.00;99182.72;5072625;28;20258;-72
2023/12/06 08:09:35;;;;;;;7.07;3.00;;;;;;;7.34;100.00;99166.84;5074058;28;20272;-71
2023/12/06 08:12:02;;;;;;;4.57;2.77;;;;;;;7.45;100.00;99179.38;5066300;28;20211;-71
2023/12/06 08:14:29;;;;;;;5.83;2.03;;;;;;;7.39;100.00;99185.47;5069922;28;20200;-71
2023/12/06 08:16:56;;;;;;;6.23;3.37;;;;;;;7.35;100.00;99186.38;5072733;28;20200;-71
2023/12/06 08:19:22;;;;;;;20.47;4.23;;;;;;;7.28;100.00;99172.06;5068220;28;20201;-71
2023/12/06 08:21:49;;;;;;;2.93;1.97;;;;;;;7.39;100.00;99185.47;5071204;28;20212;-71
2023/12/06 08:24:16;;;;;;;12.83;4.50;;;;;;;7.39;100.00;99185.47;5070563;28;20600;-71
2023/12/06 08:26:44;;;;;;;3.70;2.13;;;;;;;7.44;100.00;99184.50;5071096;28;20671;-71
2023/12/06 08:29:12;;;;;;;7.00;2.83;;;;;;;7.46;100.00;99181.06;5071074;28;20745;-71
2023/12/06 08:31:39;;;;;;;4.90;3.00;;;;;;;7.49;100.00;99180.16;5071147;28;20250;-72
2023/12/06 08:34:05;;;;;;;5.10;3.27;;;;;;;7.53;100.00;99177.47;5071094;28;20302;-71
2023/12/06 08:36:32;;;;;;;8.03;3.80;;;;;;;7.55;100.00;99180.03;5071252;28;20208;-71
2023/12/06 08:38:59;;;;;;;4.20;2.53;;;;;;;7.55;100.00;99180.88;5071392;28;20204;-71
2023/12/06 08:41:25;;;;;;;3.30;2.80;;;;;;;7.57;100.00;99168.06;5071259;28;20266;-70
2023/12/06 08:43:54;;;;;;;7.87;3.47;;;;;;;7.58;100.00;99169.75;5070754;28;20207;-72
2023/12/06 08:46:22;;;;;;;7.73;2.30;;;;;;;7.58;100.00;99160.38;5071745;28;20200;-70
2023/12/06 08:48:49;;;;;;;3.13;1.83;;;;;;;7.60;100.00;99156.09;5071438;28;20258;-70
2023/12/06 08:51:15;;;;;;;2.83;2.63;;;;;;;7.60;100.00;99157.78;5071344;28;20208;-70
2023/12/06 08:53:42;;;;;;;3.67;2.90;;;;;;;7.41;100.00;99157.34;5072342;28;20200;-72
2023/12/06 08:56:09;;;;;;;8.97;3.40;;;;;;;7.46;100.00;99158.13;5071767;28;20652;-72
2023/12/06 08:58:36;;;;;;;6.67;2.10;;;;;;;7.52;100.00;99149.47;5071360;28;20236;-72
2023/12/06 09:01:05;;;;;;;5.60;3.37;;;;;;;7.52;100.00;99150.31;5071924;28;20246;-72
2023/12/06 09:03:31;;;;;;;3.10;1.73;;;;;;;7.52;100.00;99150.31;5072564;28;20273;-72
2023/12/06 09:05:58;;;;;;;3.33;2.23;;;;;;;7.49;100.00;99154.66;5071614;28;20286;-72
2023/12/06 09:08:26;;;;;;;5.70;1.97;;;;;;;7.51;100.00;99142.69;5072261;28;20228;-70
2023/12/06 09:10:52;;;;;;;3.80;2.90;;;;;;;7.54;100.00;99147.72;5072211;28;20245;-70
2023/12/06 09:13:19;;;;;;;5.43;3.13;;;;;;;7.60;100.00;99137.38;5072288;28;20199;-71
2023/12/06 09:15:46;;;;;;;9.77;2.77;;;;;;;7.54;100.00;99132.41;5071564;28;20265;-71
2023/12/06 09:18:15;;;;;;;1.57;1.53;;;;;;;7.54;100.00;99133.25;5070775;28;20656;-72
2023/12/06 09:20:42;;;;;;;2.23;2.03;;;;;;;7.62;100.00;99130.56;5071072;28;20250;-72
2023/12/06 09:23:09;;;;;;;3.40;3.10;;;;;;;7.65;100.00;99125.38;5070881;28;20295;-71
2023/12/06 09:25:36;;;;;;;11.47;2.87;;;;;;;7.70;100.00;99129.50;5070506;28;20200;-71
2023/12/06 09:28:04;;;;;;;2.57;2.47;;;;;;;7.76;100.00;99125.97;5070948;28;20688;-71
2023/12/06 09:30:31;;;;;;;4.03;2.23;;;;;;;7.72;100.00;99111.63;5069111;28;20313;-72
2023/12/06 09:32:58;;;;;;;4.30;3.87;;;;;;;7.67;100.00;99093.84;5071277;28;20192;-72
2023/12/06 09:35:26;;;;;;;7.73;3.50;;;;;;;7.82;100.00;99116.44;5062386;28;20218;-71
2023/12/06 09:37:53;;;;;;;14.17;4.43;;;;;;;7.86;100.00;99112.09;5070605;28;20208;-71
2023/12/06 09:40:20;;;;;;;3.60;3.33;;;;;;;7.86;100.00;99105.28;5071009;28;20203;-71
2023/12/06 09:42:54;;;;;;;7.63;3.83;;;;;;;7.87;100.00;99101.03;5068985;28;20219;-72
2023/12/06 09:45:23;;;;;;;3.40;3.30;;;;;;;7.80;100.00;99090.13;5068981;28;20203;-72
2023/12/06 09:47:52;;;;;;;3.70;3.20;;;;;;;7.86;100.00;99094.25;5071142;28;20723;-72
2023/12/06 09:50:19;;;;;;;4.33;2.83;;;;;;;7.86;100.00;99084.88;5070790;28;20226;-71
2023/12/06 09:52:51;;;;;;;3.70;2.37;;;;;;;7.87;100.00;99085.72;5070981;28;20211;-72
2023/12/06 09:55:20;;;;;;;3.60;2.83;;;;;;;7.83;100.00;99094.31;5070861;28;20235;-72
2023/12/06 09:57:48;;;;;;;6.10;3.53;;;;;;;7.77;100.00;99082.56;5070438;28;20257;-72
2023/12/06 10:00:15;;;;;;;7.10;3.33;;;;;;;7.85;100.00;99092.59;5071081;28;20618;-72
2023/12/06 10:02:50;;;;;;;4.03;3.83;;;;;;;7.87;100.00;99085.72;5068336;28;20319;-72
2023/12/06 10:05:17;;;;;;;4.40;2.33;;;;;;;7.84;100.00;99080.69;5070746;28;20563;-72
2023/12/06 10:07:44;;;;;;;12.37;3.57;;;;;;;7.78;100.00;99070.66;5069454;28;20236;-72
2023/12/06 10:10:15;;;;;;;7.67;2.57;;;;;;;7.82;100.00;99056.91;5068662;28;20302;-72
2023/12/06 10:12:50;;;;;;;6.53;2.77;;;;;;;7.86;100.00;99059.38;5069891;28;20204;-71
2023/12/06 10:15:17;;;;;;;5.97;3.30;;;;;;;7.86;100.00;99058.53;5070874;28;20700;-71
2023/12/06 10:17:44;;;;;;;3.40;3.17;;;;;;;7.88;100.00;99057.59;5068774;28;20210;-72
2023/12/06 10:20:11;;;;;;;4.67;3.50;;;;;;;7.90;100.00;99055.03;5070810;28;20627;-72
2023/12/06 10:22:38;;;;;;;6.23;1.83;;;;;;;7.82;100.00;99052.66;5070264;28;20200;-71
2023/12/06 10:25:06;;;;;;;5.50;2.70;;;;;;;7.77;100.00;99053.66;5065474;28;20224;-68
2023/12/06 10:27:35;;;;;;;8.90;3.70;;;;;;;7.73;100.00;99052.03;5070545;28;20200;-67
2023/12/06 10:30:03;;;;;;;6.83;2.80;;;;;;;7.68;100.00;99054.72;5069191;28;20302;-68
2023/12/06 10:32:31;;;;;;;5.93;4.03;;;;;;;7.67;100.00;99053.03;5067398;28;20204;-68
2023/12/06 10:35:00;;;;;;;6.67;2.77;;;;;;;7.66;100.00;99048.78;5065885;28;20202;-69
2023/12/06 10:37:28;;;;;;;5.10;2.90;;;;;;;7.65;100.00;99041.19;5069430;28;20664;-68
2023/12/06 10:40:00;;;;;;;2.77;2.57;;;;;;;7.62;100.00;99043.81;5069680;28;20246;-68
2023/12/06 10:42:33;;;;;;;9.80;5.43;;;;;;;7.59;100.00;99038.78;5069107;28;20210;-68
2023/12/06 10:45:02;;;;;;;10.57;2.80;;;;;;;7.54;100.00;99040.59;5067180;28;20203;-69
2023/12/06 10:47:30;;;;;;;7.20;5.30;;;;;;;7.52;100.00;99032.16;5064639;28;20255;-68
2023/12/06 10:49:57;;;;;;;3.20;3.00;;;;;;;7.53;100.00;99026.19;5069511;28;20218;-68
2023/12/06 10:52:24;;;;;;;10.77;5.37;;;;;;;7.53;100.00;99026.19;5069789;28;20208;-68
2023/12/06 10:54:51;;;;;;;7.60;4.00;;;;;;;7.54;100.00;99030.41;5070107;28;20642;-68
2023/12/06 10:57:19;;;;;;;8.40;5.23;;;;;;;7.55;100.00;99026.97;5069233;28;20246;-68
2023/12/06 10:59:46;;;;;;;3.90;3.43;;;;;;;7.53;100.00;99023.66;5069006;28;20633;-69
2023/12/06 11:02:14;;;;;;;7.00;3.97;;;;;;;7.47;100.00;99028.84;5069361;28;20784;-68
2023/12/06 11:04:47;;;;;;;5.43;5.03;;;;;;;7.48;100.00;99028.00;5069550;28;20196;-69
2023/12/06 11:07:26;;;;;;;3.97;2.73;;;;;;;7.46;100.00;99017.84;5069941;28;20712;-68
2023/12/06 11:10:05;;;;;;;14.23;3.97;;;;;;;7.50;100.00;99018.59;5069865;28;20777;-68
2023/12/06 11:12:42;;;;;;;4.07;3.77;;;;;;;7.51;100.00;99020.28;5067535;28;20202;-69
2023/12/06 11:15:22;;;;;;;7.70;5.67;;;;;;;7.55;100.00;99026.97;5066542;28;20261;-68
2023/12/06 11:18:01;;;;;;;8.17;4.40;;;;;;;7.55;100.00;99016.78;5065481;28;20273;-68
2023/12/06 11:20:28;;;;;;;7.03;4.23;;;;;;;7.56;100.00;99018.47;5066713;28;20257;-68
2023/12/06 11:22:57;;;;;;;7.90;3.93;;;;;;;7.56;100.00;99018.47;5071548;28;20204;-68
2023/12/06 11:25:24;;;;;;;14.67;6.13;;;;;;;7.44;100.00;99000.88;5072109;28;20212;-68
2023/12/06 11:27:51;;;;;;;4.50;2.57;;;;;;;7.55;100.00;99016.78;5069509;28;20196;-69
2023/12/06 11:30:18;;;;;;;7.80;4.43;;;;;;;7.54;100.00;99010.00;5072341;28;20566;-69
2023/12/06 11:32:46;;;;;;;5.40;2.93;;;;;;;7.54;100.00;99007.44;5069363;28;20199;-68
2023/12/06 11:35:14;;;;;;;5.57;3.40;;;;;;;7.51;100.00;98987.13;5070945;28;20207;-68